createdAt,value
2023-07-18T00:02:04.223Z,79.28
2023-07-18T00:04:33.446Z,77.79
2023-07-18T00:07:01.075Z,77.73
2023-07-18T00:09:28.674Z,78.76
2023-07-18T00:11:56.212Z,78.97
2023-07-18T00:14:23.793Z,78.34
2023-07-18T00:16:51.353Z,78.45
2023-07-18T00:19:19.301Z,78.70
2023-07-18T00:21:48.194Z,78.57
2023-07-18T00:24:15.816Z,77.17
2023-07-18T00:26:43.390Z,77.45
2023-07-18T00:29:10.960Z,78.49
2023-07-18T00:31:38.548Z,79.07
2023-07-18T00:34:06.206Z,76.86
2023-07-18T00:36:33.769Z,80.39
2023-07-18T00:39:03.107Z,83.38
2023-07-18T00:41:30.684Z,84.94
2023-07-18T00:43:58.235Z,87.12
2023-07-18T00:46:26.010Z,87.24
2023-07-18T00:48:53.643Z,84.24
2023-07-18T00:51:22.462Z,82.81
2023-07-18T00:53:50.080Z,84.29
2023-07-18T00:56:19.034Z,83.90
2023-07-18T00:58:46.742Z,91.01
2023-07-18T01:01:14.461Z,96.99
2023-07-18T01:03:42.305Z,92.75
2023-07-18T01:06:10.746Z,94.09
2023-07-18T01:08:38.688Z,92.43
2023-07-18T01:11:06.958Z,94.79
2023-07-18T01:13:36.163Z,97.19
2023-07-18T01:16:04.580Z,99.48
2023-07-18T01:18:32.280Z,100.00
2023-07-18T01:21:02.335Z,100.00
2023-07-18T01:23:31.256Z,100.00
2023-07-18T01:25:58.800Z,100.00
2023-07-18T01:28:26.481Z,100.00
2023-07-18T01:30:54.072Z,100.00
2023-07-18T01:33:21.965Z,100.00
2023-07-18T01:35:49.519Z,100.00
2023-07-18T01:38:17.090Z,100.00
2023-07-18T01:40:46.200Z,100.00
2023-07-18T01:43:13.754Z,100.00
2023-07-18T01:45:41.329Z,100.00
2023-07-18T01:48:08.979Z,100.00
2023-07-18T01:50:36.618Z,100.00
2023-07-18T01:53:04.230Z,100.00
2023-07-18T01:55:31.844Z,100.00
2023-07-18T01:58:01.152Z,100.00
2023-07-18T02:00:28.899Z,100.00
2023-07-18T02:02:56.557Z,100.00
2023-07-18T02:05:25.644Z,100.00
2023-07-18T02:07:54.213Z,100.00
2023-07-18T02:10:22.894Z,100.00
2023-07-18T02:12:52.807Z,100.00
2023-07-18T02:15:23.135Z,100.00
2023-07-18T02:17:51.219Z,100.00
2023-07-18T02:20:19.003Z,100.00
2023-07-18T02:22:47.107Z,100.00
2023-07-18T02:25:15.222Z,100.00
2023-07-18T02:27:42.866Z,100.00
2023-07-18T02:30:12.394Z,100.00
2023-07-18T02:32:43.259Z,100.00
2023-07-18T02:35:13.361Z,100.00
2023-07-18T02:37:40.913Z,100.00
2023-07-18T02:40:09.009Z,100.00
2023-07-18T02:42:36.895Z,100.00
2023-07-18T02:45:05.595Z,100.00
2023-07-18T02:47:33.249Z,100.00
2023-07-18T02:50:02.291Z,100.00
2023-07-18T02:52:29.844Z,100.00
2023-07-18T02:54:57.378Z,100.00
2023-07-18T02:57:25.165Z,100.00
2023-07-18T02:59:52.806Z,100.00
2023-07-18T03:02:20.420Z,100.00
2023-07-18T03:04:48.158Z,100.00
2023-07-18T03:07:17.213Z,100.00
2023-07-18T03:09:44.938Z,100.00
2023-07-18T03:12:12.587Z,100.00
2023-07-18T03:14:40.771Z,100.00
2023-07-18T03:17:08.482Z,100.00
2023-07-18T03:19:36.164Z,100.00
2023-07-18T03:22:03.867Z,100.00
2023-07-18T03:24:34.772Z,100.00
2023-07-18T03:27:02.342Z,100.00
2023-07-18T03:29:30.044Z,100.00
2023-07-18T03:31:57.702Z,100.00
2023-07-18T03:34:25.582Z,100.00
2023-07-18T03:36:53.187Z,100.00
2023-07-18T03:39:20.746Z,100.00
2023-07-18T03:41:49.662Z,100.00
2023-07-18T03:44:17.245Z,100.00
2023-07-18T03:46:44.919Z,100.00
2023-07-18T03:49:12.579Z,100.00
2023-07-18T03:51:40.175Z,100.00
2023-07-18T03:54:07.772Z,100.00
2023-07-18T03:56:35.951Z,100.00
2023-07-18T03:59:04.862Z,100.00
2023-07-18T04:01:32.530Z,100.00
2023-07-18T04:04:00.203Z,100.00
2023-07-18T04:06:27.857Z,100.00
2023-07-18T04:08:55.473Z,100.00
2023-07-18T04:11:23.144Z,100.00
2023-07-18T04:13:50.847Z,100.00
2023-07-18T04:16:19.862Z,100.00
2023-07-18T04:18:47.984Z,100.00
2023-07-18T04:21:15.632Z,100.00
2023-07-18T04:23:43.203Z,100.00
2023-07-18T04:26:10.948Z,100.00
2023-07-18T04:28:38.580Z,100.00
2023-07-18T04:31:07.162Z,100.00
2023-07-18T04:33:38.467Z,100.00
2023-07-18T04:36:07.840Z,100.00
2023-07-18T04:38:36.031Z,100.00
2023-07-18T04:41:03.604Z,100.00
2023-07-18T04:43:31.539Z,100.00
2023-07-18T04:45:59.181Z,100.00
2023-07-18T04:48:27.303Z,100.00
2023-07-18T04:50:59.709Z,100.00
2023-07-18T04:53:27.810Z,100.00
2023-07-18T04:55:56.354Z,100.00
2023-07-18T04:58:25.926Z,100.00
2023-07-18T05:00:53.883Z,100.00
2023-07-18T05:03:21.775Z,100.00
2023-07-18T05:05:49.378Z,100.00
2023-07-18T05:08:19.127Z,100.00
2023-07-18T05:10:46.748Z,100.00
2023-07-18T05:13:14.644Z,100.00
2023-07-18T05:15:42.361Z,100.00
2023-07-18T05:18:10.064Z,100.00
2023-07-18T05:20:37.736Z,100.00
2023-07-18T05:23:05.625Z,100.00
2023-07-18T05:25:35.200Z,100.00
2023-07-18T05:28:03.672Z,100.00
2023-07-18T05:30:31.280Z,100.00
2023-07-18T05:32:58.884Z,100.00
2023-07-18T05:35:26.541Z,100.00
2023-07-18T05:37:54.113Z,100.00
2023-07-18T05:40:22.752Z,100.00
2023-07-18T05:42:51.821Z,100.00
2023-07-18T05:45:19.671Z,93.08
2023-07-18T05:47:47.302Z,95.81
2023-07-18T05:50:15.237Z,95.22
2023-07-18T05:52:42.874Z,95.31
2023-07-18T05:55:10.966Z,100.00
2023-07-18T05:57:38.541Z,94.21
2023-07-18T06:00:08.559Z,91.98
2023-07-18T06:02:36.224Z,86.69
2023-07-18T06:05:04.323Z,82.48
2023-07-18T06:07:31.915Z,88.16
2023-07-18T06:09:59.782Z,87.12
2023-07-18T06:12:27.368Z,92.65
2023-07-18T06:14:54.933Z,82.94
2023-07-18T06:17:23.924Z,77.28
2023-07-18T06:19:51.692Z,72.33
2023-07-18T06:22:19.275Z,78.86
2023-07-18T06:24:47.180Z,74.80
2023-07-18T06:27:14.768Z,78.07
2023-07-18T06:29:42.406Z,73.31
2023-07-18T06:32:10.160Z,76.88
2023-07-18T06:34:39.062Z,73.77
2023-07-18T06:37:08.751Z,84.74
2023-07-18T06:39:37.741Z,88.80
2023-07-18T06:42:06.181Z,76.25
2023-07-18T06:44:33.760Z,74.47
2023-07-18T06:47:01.544Z,77.65
2023-07-18T06:49:29.225Z,72.96
2023-07-18T06:51:58.190Z,80.85
2023-07-18T06:54:25.753Z,74.20
2023-07-18T06:56:53.442Z,80.13
2023-07-18T06:59:21.145Z,80.04
2023-07-18T07:01:48.747Z,76.79
2023-07-18T07:04:16.395Z,75.05
2023-07-18T07:06:44.509Z,70.14
2023-07-18T07:09:13.771Z,65.42
2023-07-18T07:11:41.656Z,65.52
2023-07-18T07:14:09.225Z,75.37
2023-07-18T07:16:36.925Z,67.71
2023-07-18T07:19:04.530Z,72.27
2023-07-18T07:21:32.186Z,74.06
2023-07-18T07:23:59.789Z,69.25
2023-07-18T07:26:28.780Z,63.07
2023-07-18T07:28:56.382Z,69.26
2023-07-18T07:31:25.145Z,68.26
2023-07-18T07:33:53.303Z,61.45
2023-07-18T07:36:20.873Z,61.69
2023-07-18T07:38:48.451Z,60.48
2023-07-18T07:41:16.172Z,60.71
2023-07-18T07:43:45.098Z,61.72
2023-07-18T07:46:12.857Z,56.89
2023-07-18T07:48:40.531Z,60.71
2023-07-18T07:51:08.170Z,62.05
2023-07-18T07:53:35.759Z,58.11
2023-07-18T07:56:03.465Z,67.51
2023-07-18T07:58:31.019Z,63.64
2023-07-18T08:00:59.940Z,68.03
2023-07-18T08:03:27.556Z,69.84
2023-07-18T08:05:55.427Z,78.02
2023-07-18T08:08:23.018Z,89.58
2023-07-18T08:10:50.592Z,91.58
2023-07-18T08:13:18.268Z,78.90
2023-07-18T08:15:46.066Z,78.23
2023-07-18T08:18:14.978Z,79.71
2023-07-18T08:20:42.564Z,71.66
2023-07-18T08:23:10.177Z,69.98
2023-07-18T08:25:38.846Z,75.78
2023-07-18T08:28:06.458Z,80.08
2023-07-18T08:30:34.030Z,83.77
2023-07-18T08:33:01.697Z,81.42
2023-07-18T08:35:30.613Z,72.84
2023-07-18T08:37:58.162Z,75.36
2023-07-18T08:40:25.766Z,72.45
2023-07-18T08:42:53.452Z,71.75
2023-07-18T08:45:25.943Z,70.83
2023-07-18T08:47:53.678Z,84.93
2023-07-18T08:50:22.881Z,82.61
2023-07-18T08:52:52.253Z,88.48
2023-07-18T08:55:20.168Z,78.27
2023-07-18T08:57:48.976Z,82.61
2023-07-18T09:00:17.250Z,76.98
2023-07-18T09:02:45.047Z,87.16
2023-07-18T09:05:28.507Z,88.41
2023-07-18T09:07:57.951Z,88.92
2023-07-18T09:10:26.134Z,83.60
2023-07-18T09:12:54.736Z,76.72
2023-07-18T09:15:22.481Z,78.18
2023-07-18T09:17:54.856Z,80.41
2023-07-18T09:20:24.035Z,80.12
2023-07-18T09:22:55.074Z,78.58
2023-07-18T09:25:25.050Z,75.42
2023-07-18T09:27:53.342Z,78.65
2023-07-18T09:30:28.716Z,84.41
2023-07-18T09:32:56.985Z,76.97
2023-07-18T09:35:27.970Z,84.93
2023-07-18T09:37:56.747Z,76.24
2023-07-18T09:40:27.113Z,87.38
2023-07-18T09:42:56.141Z,82.57
2023-07-18T09:45:24.994Z,92.26
2023-07-18T09:47:53.841Z,100.00
2023-07-18T09:50:21.812Z,100.00
2023-07-18T09:52:50.707Z,100.00
2023-07-18T09:55:27.125Z,100.00
2023-07-18T09:57:56.241Z,100.00
2023-07-18T10:00:25.225Z,90.77
2023-07-18T10:02:53.446Z,99.29
2023-07-18T10:05:21.904Z,100.00
2023-07-18T10:07:50.443Z,100.00
2023-07-18T10:10:18.856Z,100.00
2023-07-18T10:13:01.590Z,100.00
2023-07-18T10:15:29.779Z,100.00
2023-07-18T10:18:18.750Z,99.04
2023-07-18T10:20:59.223Z,89.06
2023-07-18T10:23:43.493Z,78.76
2023-07-18T10:26:11.168Z,87.80
2023-07-18T10:28:48.988Z,91.83
2023-07-18T10:31:30.750Z,83.52
2023-07-18T10:34:06.929Z,91.81
2023-07-18T10:36:35.833Z,100.00
2023-07-18T10:39:11.132Z,94.74
2023-07-18T10:41:43.139Z,100.00
2023-07-18T10:44:15.647Z,100.00
2023-07-18T10:46:43.905Z,100.00
2023-07-18T10:49:11.530Z,100.00
2023-07-18T10:51:39.085Z,100.00
2023-07-18T10:54:06.697Z,100.00
2023-07-18T10:56:34.290Z,100.00
2023-07-18T10:59:03.078Z,100.00
2023-07-18T11:01:32.116Z,98.46
2023-07-18T11:04:06.658Z,100.00
2023-07-18T11:06:34.482Z,100.00
2023-07-18T11:09:02.469Z,100.00
2023-07-18T11:11:30.070Z,100.00
2023-07-18T11:13:57.959Z,100.00
2023-07-18T11:16:25.619Z,100.00
2023-07-18T11:18:54.761Z,100.00
2023-07-18T11:21:23.256Z,100.00
2023-07-18T11:23:51.384Z,100.00
2023-07-18T11:26:20.292Z,100.00
2023-07-18T11:28:51.567Z,100.00
2023-07-18T11:31:40.443Z,97.36
2023-07-18T11:34:10.878Z,100.00
2023-07-18T11:36:41.040Z,97.65
2023-07-18T11:39:20.031Z,90.54
2023-07-18T11:41:48.290Z,78.04
2023-07-18T11:44:25.681Z,75.93
2023-07-18T11:46:54.385Z,75.32
2023-07-18T11:49:35.006Z,69.38
2023-07-18T11:52:03.019Z,64.48
2023-07-18T11:54:31.029Z,65.36
2023-07-18T11:56:58.614Z,62.12
2023-07-18T11:59:26.297Z,68.32
2023-07-18T12:01:53.912Z,75.47
2023-07-18T12:04:21.645Z,67.96
2023-07-18T12:06:50.694Z,72.45
2023-07-18T12:09:18.384Z,77.55
2023-07-18T12:11:46.090Z,82.27
2023-07-18T12:14:13.932Z,76.24
2023-07-18T12:16:41.672Z,70.51
2023-07-18T12:19:09.314Z,64.25
2023-07-18T12:21:36.876Z,64.22
2023-07-18T12:24:06.601Z,62.61
2023-07-18T12:26:34.211Z,62.26
2023-07-18T12:29:01.807Z,63.42
2023-07-18T12:31:29.699Z,59.36
2023-07-18T12:33:57.432Z,52.21
2023-07-18T12:36:25.045Z,49.81
2023-07-18T12:38:52.672Z,52.50
2023-07-18T12:41:21.995Z,49.63
2023-07-18T12:43:49.886Z,54.16
2023-07-18T12:46:17.581Z,60.91
2023-07-18T12:51:15.771Z,57.67
2023-07-18T12:53:43.371Z,53.60
2023-07-18T12:56:11.158Z,56.53
2023-07-18T12:58:40.069Z,65.74
2023-07-18T13:01:07.694Z,62.82
2023-07-18T13:03:35.457Z,69.81
2023-07-18T13:06:03.210Z,87.12
2023-07-18T13:08:30.776Z,84.41
2023-07-18T13:10:58.488Z,83.41
2023-07-18T13:13:26.166Z,81.76
2023-07-18T13:15:55.131Z,71.88
2023-07-18T13:18:22.767Z,61.49
2023-07-18T13:20:51.052Z,63.80
2023-07-18T13:23:18.877Z,63.11
2023-07-18T13:25:46.575Z,59.92
2023-07-18T13:28:14.106Z,56.38
2023-07-18T13:30:42.954Z,56.28
2023-07-18T13:33:12.043Z,58.27
2023-07-18T13:35:39.702Z,57.62
2023-07-18T13:38:07.516Z,58.52
2023-07-18T13:40:36.491Z,64.44
2023-07-18T13:43:04.619Z,62.42
2023-07-18T13:45:32.256Z,65.18
2023-07-18T13:47:59.923Z,62.74
2023-07-18T13:50:31.750Z,64.79
2023-07-18T13:52:59.663Z,73.62
2023-07-18T13:55:27.432Z,71.24
2023-07-18T13:57:55.279Z,67.84
2023-07-18T14:00:22.953Z,71.51
2023-07-18T14:02:50.710Z,71.99
2023-07-18T14:05:18.671Z,76.12
2023-07-18T14:07:47.574Z,77.62
2023-07-18T14:10:15.191Z,76.99
2023-07-18T14:12:42.852Z,79.64
2023-07-18T14:15:11.235Z,76.59
2023-07-18T14:17:38.803Z,80.49
2023-07-18T14:20:07.723Z,77.13
2023-07-18T14:22:35.379Z,72.63
2023-07-18T14:25:05.321Z,73.89
2023-07-18T14:27:32.907Z,74.79
2023-07-18T14:30:00.561Z,75.72
2023-07-18T14:32:28.299Z,79.74
2023-07-18T14:34:55.896Z,79.74
2023-07-18T14:37:23.503Z,90.67
2023-07-18T14:39:58.800Z,100.00
2023-07-18T14:42:27.721Z,100.00
2023-07-18T14:44:55.335Z,94.88
2023-07-18T14:47:23.000Z,87.08
2023-07-18T14:49:50.652Z,80.22
2023-07-18T14:52:18.662Z,78.52
2023-07-18T14:54:46.298Z,86.65
2023-07-18T14:57:13.916Z,83.23
2023-07-18T14:59:42.844Z,87.70
2023-07-18T15:02:10.525Z,98.14
2023-07-18T15:04:38.106Z,97.10
2023-07-18T15:07:05.721Z,90.11
2023-07-18T15:09:33.372Z,88.86
2023-07-18T15:12:00.946Z,91.39
2023-07-18T15:14:28.509Z,90.20
2023-07-18T15:16:57.485Z,93.39
2023-07-18T15:19:25.095Z,91.08
2023-07-18T15:21:52.677Z,89.36
2023-07-18T15:24:20.332Z,92.90
2023-07-18T15:26:48.110Z,97.51
2023-07-18T15:29:15.708Z,90.78
2023-07-18T15:31:43.407Z,95.51
2023-07-18T15:34:12.416Z,100.00
2023-07-18T15:36:39.984Z,90.61
2023-07-18T15:39:07.619Z,93.27
2023-07-18T15:41:35.367Z,99.88
2023-07-18T15:44:02.946Z,92.28
2023-07-18T15:46:30.671Z,90.90
2023-07-18T15:48:58.299Z,89.65
2023-07-18T15:51:28.271Z,90.20
2023-07-18T15:53:56.121Z,97.41
2023-07-18T15:56:23.774Z,100.00
2023-07-18T15:58:51.360Z,96.44
2023-07-18T16:01:19.005Z,97.19
2023-07-18T16:03:46.862Z,94.20
2023-07-18T16:06:14.826Z,100.00
2023-07-18T16:08:43.870Z,95.25
2023-07-18T16:11:11.487Z,100.00
2023-07-18T16:13:39.125Z,100.00
2023-07-18T16:16:07.452Z,100.00
2023-07-18T16:18:35.130Z,100.00
2023-07-18T16:21:02.746Z,100.00
2023-07-18T16:23:30.349Z,100.00
2023-07-18T16:25:59.347Z,100.00
2023-07-18T16:28:26.942Z,100.00
2023-07-18T16:30:54.550Z,100.00
2023-07-18T16:33:22.357Z,100.00
2023-07-18T16:35:50.062Z,100.00
2023-07-18T16:38:17.620Z,100.00
2023-07-18T16:40:45.175Z,98.60
2023-07-18T16:43:14.053Z,100.00
2023-07-18T16:45:42.711Z,100.00
2023-07-18T16:48:10.437Z,100.00
2023-07-18T16:50:38.096Z,100.00
2023-07-18T16:53:05.643Z,100.00
2023-07-18T16:55:33.213Z,100.00
2023-07-18T16:58:00.816Z,100.00
2023-07-18T17:00:29.923Z,100.00
2023-07-18T17:02:57.556Z,100.00
2023-07-18T17:05:25.294Z,100.00
2023-07-18T17:07:52.870Z,100.00
2023-07-18T17:10:20.648Z,100.00
2023-07-18T17:12:48.202Z,100.00
2023-07-18T17:15:15.756Z,100.00
2023-07-18T17:17:44.733Z,100.00
2023-07-18T17:20:14.623Z,100.00
2023-07-18T17:22:42.471Z,100.00
2023-07-18T17:25:10.093Z,100.00
2023-07-18T17:27:37.650Z,100.00
2023-07-18T17:30:07.649Z,99.48
2023-07-18T17:32:36.042Z,96.34
2023-07-18T17:35:05.867Z,98.55
2023-07-18T17:37:33.446Z,96.53
2023-07-18T17:40:02.049Z,100.00
2023-07-18T17:42:30.152Z,100.00
2023-07-18T17:44:57.754Z,100.00
2023-07-18T17:47:25.337Z,100.00
2023-07-18T17:49:52.929Z,100.00
2023-07-18T17:52:21.856Z,100.00
2023-07-18T17:54:49.455Z,100.00
2023-07-18T17:57:17.182Z,100.00
2023-07-18T17:59:44.878Z,100.00
2023-07-18T18:02:12.538Z,100.00
2023-07-18T18:04:40.172Z,100.00
2023-07-18T18:07:07.808Z,100.00
2023-07-18T18:09:36.813Z,100.00
2023-07-18T18:12:04.893Z,100.00
2023-07-18T18:14:32.468Z,100.00
2023-07-18T18:17:00.038Z,100.00
2023-07-18T18:19:27.658Z,100.00
2023-07-18T18:21:55.409Z,100.00
2023-07-18T18:24:23.078Z,100.00
2023-07-18T18:26:52.000Z,100.00
2023-07-18T18:29:19.583Z,100.00
2023-07-18T18:31:47.185Z,100.00
2023-07-18T18:34:14.746Z,100.00
2023-07-18T18:36:42.378Z,100.00
2023-07-18T18:39:10.004Z,100.00
2023-07-18T18:41:37.571Z,100.00
2023-07-18T18:44:06.596Z,100.00
2023-07-18T18:46:35.116Z,100.00
2023-07-18T18:49:06.498Z,100.00
2023-07-18T18:51:34.513Z,100.00
2023-07-18T18:54:02.115Z,100.00
2023-07-18T18:56:29.685Z,100.00
2023-07-18T18:58:57.258Z,100.00
2023-07-18T19:01:26.210Z,100.00
2023-07-18T19:03:53.981Z,100.00
2023-07-18T19:06:21.703Z,100.00
2023-07-18T19:08:49.266Z,100.00
2023-07-18T19:11:16.872Z,100.00
2023-07-18T19:13:44.441Z,100.00
2023-07-18T19:16:19.120Z,100.00
2023-07-18T19:18:57.758Z,100.00
2023-07-18T19:21:25.294Z,100.00
2023-07-18T19:23:52.922Z,100.00
2023-07-18T19:26:20.580Z,100.00
2023-07-18T19:28:48.268Z,100.00
2023-07-18T19:31:15.828Z,100.00
2023-07-18T19:33:43.409Z,100.00
2023-07-18T19:36:12.375Z,100.00
2023-07-18T19:38:40.572Z,100.00
2023-07-18T19:41:08.386Z,100.00
2023-07-18T19:43:35.955Z,100.00
2023-07-18T19:46:03.990Z,100.00
2023-07-18T19:48:31.597Z,100.00
2023-07-18T19:50:59.253Z,100.00
2023-07-18T19:53:28.402Z,100.00
2023-07-18T19:55:56.778Z,100.00
2023-07-18T19:58:24.468Z,100.00
2023-07-18T20:00:52.058Z,100.00
2023-07-18T20:03:19.841Z,100.00
2023-07-18T20:05:48.518Z,100.00
2023-07-18T20:08:16.083Z,100.00
2023-07-18T20:10:45.051Z,100.00
2023-07-18T20:13:12.598Z,100.00
2023-07-18T20:15:40.261Z,100.00
2023-07-18T20:18:07.826Z,100.00
2023-07-18T20:20:35.584Z,100.00
2023-07-18T20:23:05.595Z,100.00
2023-07-18T20:25:33.596Z,100.00
2023-07-18T20:28:02.534Z,100.00
2023-07-18T20:30:30.194Z,100.00
2023-07-18T20:32:57.990Z,100.00
2023-07-18T20:35:25.790Z,100.00
2023-07-18T20:37:53.407Z,100.00
2023-07-18T20:40:21.193Z,100.00
2023-07-18T20:42:48.784Z,100.00
2023-07-18T20:45:18.099Z,100.00
2023-07-18T20:47:45.683Z,100.00
2023-07-18T20:50:13.334Z,100.00
2023-07-18T20:52:40.969Z,100.00
2023-07-18T20:55:08.741Z,100.00
2023-07-18T20:57:36.360Z,100.00
2023-07-18T21:00:04.694Z,100.00
2023-07-18T21:02:33.605Z,100.00
2023-07-18T21:05:01.215Z,100.00
2023-07-18T21:07:28.792Z,100.00
2023-07-18T21:09:57.551Z,100.00
2023-07-18T21:12:25.189Z,100.00
2023-07-18T21:14:52.737Z,100.00
2023-07-18T21:17:20.419Z,100.00
2023-07-18T21:19:49.292Z,100.00
2023-07-18T21:22:16.855Z,100.00
2023-07-18T21:24:44.419Z,100.00
2023-07-18T21:27:11.998Z,100.00
2023-07-18T21:29:39.527Z,100.00
2023-07-18T21:32:08.033Z,100.00
2023-07-18T21:34:35.625Z,100.00
2023-07-18T21:37:05.178Z,100.00
2023-07-18T21:39:32.777Z,100.00
2023-07-18T21:42:00.374Z,100.00
2023-07-18T21:44:28.014Z,100.00
2023-07-18T21:46:55.726Z,100.00
2023-07-18T21:49:23.353Z,100.00
2023-07-18T21:51:51.070Z,100.00
2023-07-18T21:54:20.104Z,100.00
2023-07-18T21:56:47.766Z,100.00
2023-07-18T21:59:15.323Z,100.00
2023-07-18T22:01:42.974Z,100.00
2023-07-18T22:04:10.582Z,100.00
2023-07-18T22:06:38.185Z,100.00
2023-07-18T22:09:08.304Z,100.00
2023-07-18T22:11:38.257Z,100.00
2023-07-18T22:14:05.834Z,100.00
2023-07-18T22:16:33.483Z,100.00
2023-07-18T22:19:01.115Z,100.00
2023-07-18T22:21:28.692Z,100.00
2023-07-18T22:23:56.270Z,100.00
2023-07-18T22:26:23.874Z,100.00
2023-07-18T22:28:53.414Z,100.00
2023-07-18T22:31:21.169Z,100.00
2023-07-18T22:33:48.986Z,100.00
2023-07-18T22:36:16.605Z,100.00
2023-07-18T22:38:44.194Z,100.00
2023-07-18T22:41:11.861Z,100.00
2023-07-18T22:43:39.422Z,100.00
2023-07-18T22:46:08.381Z,100.00
2023-07-18T22:48:35.977Z,100.00
2023-07-18T22:51:03.678Z,100.00
2023-07-18T22:53:32.601Z,100.00
2023-07-18T22:56:00.183Z,100.00
2023-07-18T22:58:27.924Z,100.00
2023-07-18T23:00:55.500Z,100.00
2023-07-18T23:03:24.506Z,100.00
2023-07-18T23:05:52.106Z,100.00
2023-07-18T23:08:19.650Z,100.00
2023-07-18T23:10:47.243Z,100.00
2023-07-18T23:13:16.361Z,100.00
2023-07-18T23:15:44.271Z,100.00
2023-07-18T23:18:11.898Z,100.00
2023-07-18T23:20:40.818Z,100.00
2023-07-18T23:23:08.444Z,100.00
2023-07-18T23:25:36.159Z,100.00
2023-07-18T23:28:03.985Z,100.00
2023-07-18T23:30:31.621Z,100.00
2023-07-18T23:32:59.204Z,100.00
2023-07-18T23:35:26.824Z,100.00
2023-07-18T23:37:56.094Z,100.00
2023-07-18T23:40:23.676Z,100.00
2023-07-18T23:42:51.242Z,100.00
2023-07-18T23:45:18.845Z,100.00
2023-07-18T23:47:46.544Z,100.00
2023-07-18T23:50:14.210Z,100.00
2023-07-18T23:52:41.769Z,100.00
2023-07-18T23:55:10.790Z,100.00
2023-07-18T23:57:38.599Z,100.00
